createdAt,value
2023-03-22T00:02:28.199Z,99.99
2023-03-22T00:04:58.024Z,99.99
2023-03-22T00:07:27.859Z,99.99
2023-03-22T00:09:57.709Z,99.99
2023-03-22T00:12:27.528Z,99.99
2023-03-22T00:14:57.375Z,99.99
2023-03-22T00:17:28.668Z,99.99
2023-03-22T00:19:59.555Z,99.99
2023-03-22T00:22:29.362Z,99.99
2023-03-22T00:24:59.068Z,99.99
2023-03-22T00:27:28.685Z,99.99
2023-03-22T00:29:59.451Z,99.99
2023-03-22T00:32:29.327Z,99.99
2023-03-22T00:34:59.081Z,99.99
2023-03-22T00:37:36.479Z,99.99
2023-03-22T00:40:10.041Z,99.99
2023-03-22T00:42:43.323Z,99.99
2023-03-22T00:45:14.402Z,99.99
2023-03-22T00:47:44.231Z,99.99
2023-03-22T00:50:14.062Z,99.99
2023-03-22T00:52:43.743Z,99.99
2023-03-22T00:55:13.787Z,99.99
2023-03-22T00:57:43.738Z,99.99
2023-03-22T01:00:17.298Z,99.99
2023-03-22T01:02:48.320Z,99.99
2023-03-22T01:05:23.088Z,99.99
2023-03-22T01:07:56.460Z,99.99
2023-03-22T01:10:26.548Z,99.99
2023-03-22T01:12:57.979Z,99.99
2023-03-22T01:15:27.909Z,99.99
2023-03-22T01:17:58.361Z,99.99
2023-03-22T01:20:29.692Z,99.99
2023-03-22T01:22:59.603Z,99.99
2023-03-22T01:25:29.674Z,99.99
2023-03-22T01:27:59.577Z,99.99
2023-03-22T01:30:29.414Z,99.99
2023-03-22T01:32:59.199Z,99.99
2023-03-22T01:35:29.029Z,99.99
2023-03-22T01:37:59.105Z,99.99
2023-03-22T01:40:29.334Z,99.99
2023-03-22T01:42:59.528Z,99.99
2023-03-22T01:45:40.139Z,99.99
2023-03-22T01:48:13.891Z,99.99
2023-03-22T01:50:47.670Z,99.99
2023-03-22T01:53:20.402Z,99.99
2023-03-22T01:55:51.067Z,99.99
2023-03-22T01:58:27.593Z,99.99
2023-03-22T02:01:01.818Z,99.99
2023-03-22T02:04:17.468Z,99.99
2023-03-22T02:06:48.793Z,99.99
2023-03-22T02:09:23.165Z,99.99
2023-03-22T03:08:02.433Z,99.99
2023-03-22T03:10:34.880Z,99.99
2023-03-22T03:13:05.138Z,99.99
2023-03-22T03:15:35.002Z,99.99
2023-03-22T03:18:27.889Z,99.99
2023-03-22T03:21:10.914Z,99.99
2023-03-22T03:24:02.194Z,99.99
2023-03-22T03:27:04.113Z,99.99
2023-03-22T03:30:00.780Z,99.99
2023-03-22T03:32:38.805Z,99.99
2023-03-22T03:35:28.857Z,99.99
2023-03-22T03:38:19.759Z,99.99
2023-03-22T03:40:55.738Z,99.99
2023-03-22T03:43:27.756Z,99.99
2023-03-22T03:45:59.280Z,99.99
2023-03-22T03:48:34.716Z,99.99
2023-03-22T03:51:05.554Z,99.99
2023-03-22T03:53:35.641Z,99.99
2023-03-22T03:56:05.962Z,99.99
2023-03-22T03:58:40.904Z,99.99
2023-03-22T04:01:11.565Z,99.99
2023-03-22T04:03:56.500Z,99.99
2023-03-22T04:06:49.205Z,99.99
2023-03-22T04:09:24.907Z,99.99
2023-03-22T04:11:59.814Z,99.99
2023-03-22T04:14:30.622Z,99.99
2023-03-22T04:17:05.843Z,99.99
2023-03-22T04:19:35.738Z,99.99
2023-03-22T04:22:05.824Z,99.99
2023-03-22T04:24:39.048Z,99.99
2023-03-22T04:27:10.981Z,99.99
2023-03-22T04:30:24.077Z,99.99
2023-03-22T04:33:12.804Z,99.99
2023-03-22T04:36:17.123Z,99.99
2023-03-22T04:39:02.694Z,99.99
2023-03-22T04:41:32.936Z,99.99
2023-03-22T04:44:06.021Z,99.99
2023-03-22T04:46:39.409Z,99.99
2023-03-22T04:49:10.105Z,99.99
2023-03-22T04:51:42.511Z,99.99
2023-03-22T04:54:32.629Z,99.99
2023-03-22T04:57:02.535Z,99.99
2023-03-22T04:59:38.620Z,99.99
2023-03-22T05:02:08.504Z,99.99
2023-03-22T05:04:44.547Z,99.99
2023-03-22T05:07:52.408Z,99.99
2023-03-22T05:10:22.790Z,99.99
2023-03-22T05:12:52.732Z,99.99
2023-03-22T05:15:35.018Z,99.99
2023-03-22T05:18:06.889Z,99.99
2023-03-22T05:20:38.060Z,99.99
2023-03-22T05:23:20.368Z,99.99
2023-03-22T05:25:55.450Z,99.99
2023-03-22T05:28:28.406Z,99.99
2023-03-22T05:31:09.681Z,99.99
2023-03-22T05:33:55.479Z,99.99
2023-03-22T05:36:30.760Z,99.99
2023-03-22T05:39:35.838Z,99.99
2023-03-22T05:42:05.945Z,99.99
2023-03-22T05:44:38.677Z,99.99
2023-03-22T05:47:13.045Z,99.99
2023-03-22T05:50:14.826Z,99.99
2023-03-22T05:52:45.872Z,99.99
2023-03-22T05:55:48.950Z,99.99
2023-03-22T05:58:20.978Z,99.99
2023-03-22T06:00:54.242Z,99.99
2023-03-22T06:03:25.279Z,99.99
2023-03-22T06:06:01.283Z,99.99
2023-03-22T06:08:46.942Z,99.99
2023-03-22T06:11:18.006Z,99.99
2023-03-22T06:13:48.060Z,99.99
2023-03-22T06:16:19.761Z,99.99
2023-03-22T06:18:51.156Z,99.99
2023-03-22T06:21:21.157Z,99.99
2023-03-22T06:23:51.040Z,99.99
2023-03-22T06:26:21.614Z,99.99
2023-03-22T06:28:52.258Z,99.99
2023-03-22T06:31:22.457Z,99.99
2023-03-22T06:33:59.076Z,99.99
2023-03-22T06:36:35.482Z,99.99
2023-03-22T06:39:12.748Z,99.99
2023-03-22T06:41:46.382Z,99.99
2023-03-22T06:44:16.982Z,99.99
2023-03-22T06:46:52.992Z,99.99
2023-03-22T06:49:45.622Z,99.99
2023-03-22T06:52:28.441Z,99.99
2023-03-22T06:54:59.592Z,99.99
2023-03-22T06:57:29.713Z,99.99
2023-03-22T06:59:59.580Z,99.99
2023-03-22T07:02:29.301Z,99.99
2023-03-22T07:05:19.098Z,99.99
2023-03-22T07:07:49.295Z,99.99
2023-03-22T07:10:19.923Z,99.99
2023-03-22T07:12:49.800Z,99.99
2023-03-22T07:15:25.288Z,99.99
2023-03-22T07:18:04.789Z,99.99
2023-03-22T07:20:39.768Z,99.99
2023-03-22T07:23:11.994Z,99.99
2023-03-22T07:25:52.778Z,99.99
2023-03-22T07:28:30.172Z,99.99
2023-03-22T07:31:09.413Z,99.99
2023-03-22T07:33:49.502Z,99.99
2023-03-22T07:36:24.873Z,99.99
2023-03-22T07:38:55.636Z,99.99
2023-03-22T07:41:36.038Z,99.99
2023-03-22T07:44:31.978Z,99.99
2023-03-22T07:47:40.389Z,99.99
2023-03-22T07:50:34.030Z,99.99
2023-03-22T07:53:07.398Z,99.99
2023-03-22T07:55:38.466Z,99.99
2023-03-22T07:58:08.940Z,99.99
2023-03-22T08:00:40.166Z,99.99
2023-03-22T08:03:28.773Z,99.99
2023-03-22T08:06:10.212Z,99.99
2023-03-22T08:08:40.864Z,99.99
2023-03-22T08:11:10.742Z,99.99
2023-03-22T08:13:40.956Z,99.99
2023-03-22T08:16:13.073Z,99.99
2023-03-22T08:18:44.418Z,99.99
2023-03-22T08:21:16.200Z,99.99
2023-03-22T08:23:48.810Z,99.99
2023-03-22T08:26:50.773Z,99.99
2023-03-22T08:29:35.106Z,99.99
2023-03-22T08:32:05.747Z,99.99
2023-03-22T08:34:39.615Z,99.99
2023-03-22T08:37:10.887Z,99.99
2023-03-22T08:39:42.342Z,99.99
2023-03-22T08:42:33.367Z,99.99
2023-03-22T08:45:05.222Z,99.99
2023-03-22T08:47:37.916Z,99.99
2023-03-22T08:50:11.641Z,99.99
2023-03-22T08:52:49.503Z,99.99
2023-03-22T08:55:41.921Z,99.99
2023-03-22T08:58:13.477Z,99.99
2023-03-22T09:01:08.828Z,99.99
2023-03-22T09:03:52.881Z,99.99
2023-03-22T09:06:22.854Z,99.99
2023-03-22T09:08:53.674Z,99.99
2023-03-22T09:11:25.935Z,99.99
2023-03-22T09:13:56.044Z,99.99
2023-03-22T09:16:25.889Z,99.99
2023-03-22T09:18:55.633Z,99.99
2023-03-22T09:21:25.815Z,99.99
2023-03-22T09:24:07.768Z,99.99
2023-03-22T09:26:47.857Z,99.99
2023-03-22T09:29:20.682Z,99.99
2023-03-22T09:31:50.861Z,99.99
2023-03-22T09:34:25.038Z,99.99
2023-03-22T09:36:58.611Z,99.99
2023-03-22T09:39:33.665Z,99.99
2023-03-22T09:42:35.076Z,99.99
2023-03-22T09:45:13.975Z,99.99
2023-03-22T09:47:52.305Z,99.99
2023-03-22T09:50:29.487Z,99.99
2023-03-22T09:53:02.328Z,99.99
2023-03-22T09:56:00.628Z,99.99
2023-03-22T09:58:52.061Z,99.99
2023-03-22T10:01:39.962Z,99.99
2023-03-22T10:04:41.617Z,99.99
2023-03-22T10:07:34.915Z,99.99
2023-03-22T10:10:07.767Z,99.99
2023-03-22T10:12:43.020Z,99.99
2023-03-22T10:15:21.071Z,99.99
2023-03-22T10:17:54.962Z,99.99
2023-03-22T10:20:43.600Z,99.99
2023-03-22T10:23:19.359Z,99.99
2023-03-22T10:25:49.535Z,99.99
2023-03-22T10:28:30.678Z,99.99
2023-03-22T10:31:00.858Z,99.99
2023-03-22T10:33:37.450Z,99.99
2023-03-22T10:36:13.901Z,99.99
2023-03-22T10:38:57.545Z,99.99
2023-03-22T10:41:29.941Z,99.99
2023-03-22T10:44:03.630Z,99.99
2023-03-22T10:46:40.175Z,99.99
2023-03-22T10:49:23.976Z,99.99
2023-03-22T10:52:03.463Z,99.99
2023-03-22T10:54:34.096Z,99.99
2023-03-22T10:57:04.080Z,99.99
2023-03-22T10:59:53.801Z,99.99
2023-03-22T11:02:33.105Z,99.99
2023-03-22T11:05:07.311Z,99.99
2023-03-22T11:07:39.920Z,99.99
2023-03-22T11:10:12.510Z,99.99
2023-03-22T11:13:12.254Z,99.99
2023-03-22T11:15:50.538Z,99.99
2023-03-22T11:18:20.753Z,99.99
2023-03-22T11:21:06.110Z,98.97
2023-03-22T11:23:39.650Z,99.39
2023-03-22T11:26:15.595Z,99.63
2023-03-22T11:28:52.016Z,99.70
2023-03-22T11:31:22.994Z,99.23
2023-03-22T11:34:00.002Z,98.41
2023-03-22T11:36:30.495Z,97.65
2023-03-22T11:39:08.992Z,97.65
2023-03-22T11:41:41.187Z,96.67
2023-03-22T11:44:19.230Z,96.42
2023-03-22T11:47:02.855Z,96.05
2023-03-22T11:49:41.806Z,93.75
2023-03-22T11:52:17.677Z,94.63
2023-03-22T11:54:48.905Z,92.97
2023-03-22T11:57:24.365Z,92.27
2023-03-22T12:00:00.255Z,91.61
2023-03-22T12:02:37.246Z,90.17
2023-03-22T12:05:19.691Z,92.14
2023-03-22T12:07:55.692Z,90.00
2023-03-22T12:10:32.514Z,89.39
2023-03-22T12:13:17.491Z,89.65
2023-03-22T12:15:54.152Z,89.12
2023-03-22T12:18:30.048Z,88.40
2023-03-22T12:21:02.012Z,87.33
2023-03-22T12:23:37.662Z,88.36
2023-03-22T12:26:19.557Z,89.46
2023-03-22T12:29:01.468Z,88.91
2023-03-22T12:31:43.850Z,88.60
2023-03-22T12:34:23.072Z,89.69
2023-03-22T12:36:57.268Z,87.68
2023-03-22T12:39:42.008Z,87.19
2023-03-22T12:42:34.720Z,88.31
2023-03-22T12:45:12.400Z,86.13
2023-03-22T12:47:52.750Z,86.26
2023-03-22T12:50:41.526Z,87.19
2023-03-22T12:53:21.237Z,86.93
2023-03-22T12:55:51.822Z,86.75
2023-03-22T12:58:24.725Z,86.52
2023-03-22T13:01:12.988Z,86.16
2023-03-22T13:03:53.268Z,84.82
2023-03-22T13:06:46.702Z,84.04
2023-03-22T13:09:18.630Z,83.39
2023-03-22T13:12:08.199Z,83.06
2023-03-22T13:15:01.455Z,84.30
2023-03-22T13:17:32.196Z,82.45
2023-03-22T13:20:26.836Z,83.79
2023-03-22T13:22:56.610Z,81.20
2023-03-22T13:25:30.809Z,81.14
2023-03-22T13:28:04.960Z,82.96
2023-03-22T13:30:48.403Z,81.60
2023-03-22T13:33:26.132Z,81.08
2023-03-22T13:36:00.022Z,81.24
2023-03-22T13:38:35.274Z,82.11
2023-03-22T13:41:29.171Z,82.18
2023-03-22T13:44:06.899Z,81.64
2023-03-22T13:46:39.804Z,79.89
2023-03-22T13:49:45.894Z,82.05
2023-03-22T13:52:37.963Z,81.51
2023-03-22T13:55:38.039Z,79.39
2023-03-22T13:58:12.050Z,76.82
2023-03-22T14:00:50.145Z,76.51
2023-03-22T14:03:29.166Z,75.91
2023-03-22T14:06:12.369Z,75.86
2023-03-22T14:08:45.371Z,74.60
2023-03-22T14:11:52.290Z,75.00
2023-03-22T14:14:26.013Z,73.86
2023-03-22T14:17:02.448Z,74.23
2023-03-22T14:19:35.920Z,73.72
